sensor_id;sensor_type;location;lat;lon;timestamp;pressure;altitude;pressure_sealevel;temperature;humidity
23281;BME280;11809;56.390;-3.266;2023-01-29T00:02:08;101978.53;;;14.73;52.59
23281;BME280;11809;56.390;-3.266;2023-01-29T00:04:35;101975.94;;;14.72;52.63
23281;BME280;11809;56.390;-3.266;2023-01-29T00:07:02;101967.16;;;14.71;52.71
23281;BME280;11809;56.390;-3.266;2023-01-29T00:09:29;101957.56;;;14.67;52.74
23281;BME280;11809;56.390;-3.266;2023-01-29T00:11:57;101947.06;;;14.66;52.85
23281;BME280;11809;56.390;-3.266;2023-01-29T00:14:24;101946.25;;;14.64;52.89
23281;BME280;11809;56.390;-3.266;2023-01-29T00:16:53;101940.13;;;14.62;52.73
23281;BME280;11809;56.390;-3.266;2023-01-29T00:19:20;101942.00;;;14.60;52.74
23281;BME280;11809;56.390;-3.266;2023-01-29T00:21:47;101937.59;;;14.58;53.18
23281;BME280;11809;56.390;-3.266;2023-01-29T00:24:14;101940.31;;;14.57;52.95
23281;BME280;11809;56.390;-3.266;2023-01-29T00:26:41;101929.84;;;14.54;52.97
23281;BME280;11809;56.390;-3.266;2023-01-29T00:29:08;101939.56;;;14.53;53.06
23281;BME280;11809;56.390;-3.266;2023-01-29T00:31:36;101936.09;;;14.51;52.90
23281;BME280;11809;56.390;-3.266;2023-01-29T00:34:03;101930.81;;;14.51;53.36
23281;BME280;11809;56.390;-3.266;2023-01-29T00:36:30;101927.31;;;14.51;53.29
23281;BME280;11809;56.390;-3.266;2023-01-29T00:38:58;101930.91;;;14.48;53.34
23281;BME280;11809;56.390;-3.266;2023-01-29T00:41:27;101926.56;;;14.47;53.42
23281;BME280;11809;56.390;-3.266;2023-01-29T00:44:13;101926.59;;;14.46;53.54
23281;BME280;11809;56.390;-3.266;2023-01-29T00:46:59;101919.59;;;14.45;53.61
23281;BME280;11809;56.390;-3.266;2023-01-29T00:49:26;101915.25;;;14.42;53.28
23281;BME280;11809;56.390;-3.266;2023-01-29T00:51:53;101921.53;;;14.40;53.54
23281;BME280;11809;56.390;-3.266;2023-01-29T00:54:40;101924.16;;;14.40;53.59
23281;BME280;11809;56.390;-3.266;2023-01-29T00:57:07;101919.81;;;14.39;53.38
23281;BME280;11809;56.390;-3.266;2023-01-29T00:59:34;101921.53;;;14.40;53.50
23281;BME280;11809;56.390;-3.266;2023-01-29T01:02:01;101911.09;;;14.37;53.53
23281;BME280;11809;56.390;-3.266;2023-01-29T01:04:47;101909.34;;;14.36;53.85
23281;BME280;11809;56.390;-3.266;2023-01-29T01:07:14;101897.91;;;14.35;53.74
23281;BME280;11809;56.390;-3.266;2023-01-29T01:09:41;101899.63;;;14.36;53.98
23281;BME280;11809;56.390;-3.266;2023-01-29T01:12:29;101901.41;;;14.36;53.87
23281;BME280;11809;56.390;-3.266;2023-01-29T01:14:56;101884.75;;;14.34;53.90
23281;BME280;11809;56.390;-3.266;2023-01-29T01:17:23;101887.38;;;14.34;53.91
23281;BME280;11809;56.390;-3.266;2023-01-29T01:19:50;101881.22;;;14.33;53.97
23281;BME280;11809;56.390;-3.266;2023-01-29T01:22:17;101870.69;;;14.32;53.79
23281;BME280;11809;56.390;-3.266;2023-01-29T01:24:44;101870.69;;;14.32;54.11
23281;BME280;11809;56.390;-3.266;2023-01-29T01:27:11;101857.50;;;14.30;54.00
23281;BME280;11809;56.390;-3.266;2023-01-29T01:29:38;101856.63;;;14.30;53.90
23281;BME280;11809;56.390;-3.266;2023-01-29T01:32:06;101856.63;;;14.30;54.06
23281;BME280;11809;56.390;-3.266;2023-01-29T01:34:33;101854.94;;;14.29;54.08
23281;BME280;11809;56.390;-3.266;2023-01-29T01:37:00;101855.84;;;14.28;54.12
23281;BME280;11809;56.390;-3.266;2023-01-29T01:39:27;101856.72;;;14.28;54.30
23281;BME280;11809;56.390;-3.266;2023-01-29T01:41:54;101858.59;;;14.25;53.97
23281;BME280;11809;56.390;-3.266;2023-01-29T01:44:57;101860.31;;;14.26;54.30
23281;BME280;11809;56.390;-3.266;2023-01-29T01:47:33;101858.59;;;14.25;53.98
23281;BME280;11809;56.390;-3.266;2023-01-29T01:50:06;101854.97;;;14.27;54.15
23281;BME280;11809;56.390;-3.266;2023-01-29T01:52:37;101849.75;;;14.26;53.98
23281;BME280;11809;56.390;-3.266;2023-01-29T01:55:07;101852.38;;;14.26;54.19
23281;BME280;11809;56.390;-3.266;2023-01-29T01:57:35;101849.75;;;14.26;54.24
23281;BME280;11809;56.390;-3.266;2023-01-29T02:00:08;101853.25;;;14.26;54.23
23281;BME280;11809;56.390;-3.266;2023-01-29T02:02:38;101849.78;;;14.24;54.28
23281;BME280;11809;56.390;-3.266;2023-01-29T02:05:26;101839.28;;;14.23;53.95
23281;BME280;11809;56.390;-3.266;2023-01-29T02:08:13;101842.78;;;14.23;54.29
23281;BME280;11809;56.390;-3.266;2023-01-29T02:10:59;101826.84;;;14.25;54.10
23281;BME280;11809;56.390;-3.266;2023-01-29T02:13:26;101813.72;;;14.23;54.35
23281;BME280;11809;56.390;-3.266;2023-01-29T02:15:53;101811.00;;;14.25;54.53
23281;BME280;11809;56.390;-3.266;2023-01-29T02:18:20;101811.88;;;14.25;54.18
23281;BME280;11809;56.390;-3.266;2023-01-29T02:20:57;101812.72;;;14.26;54.17
23281;BME280;11809;56.390;-3.266;2023-01-29T02:28:57;101784.56;;;14.25;54.20
23281;BME280;11809;56.390;-3.266;2023-01-29T02:34:48;101773.00;;;14.27;54.40
23281;BME280;11809;56.390;-3.266;2023-01-29T02:46:12;101759.75;;;14.29;54.60
23281;BME280;11809;56.390;-3.266;2023-01-29T02:54:30;101739.41;;;14.29;54.80
23281;BME280;11809;56.390;-3.266;2023-01-29T02:59:49;101728.84;;;14.29;54.72
23281;BME280;11809;56.390;-3.266;2023-01-29T03:02:24;101723.47;;;14.32;54.64
23281;BME280;11809;56.390;-3.266;2023-01-29T03:04:59;101714.69;;;14.32;54.53
23281;BME280;11809;56.390;-3.266;2023-01-29T03:07:34;101708.47;;;14.33;54.56
23281;BME280;11809;56.390;-3.266;2023-01-29T03:12:47;101713.75;;;14.33;54.67
23281;BME280;11809;56.390;-3.266;2023-01-29T03:15:25;101708.47;;;14.33;54.91
23281;BME280;11809;56.390;-3.266;2023-01-29T03:20:28;101695.13;;;14.36;54.65
23281;BME280;11809;56.390;-3.266;2023-01-29T03:23:03;101687.22;;;14.36;54.67
23281;BME280;11809;56.390;-3.266;2023-01-29T03:25:34;101679.19;;;14.37;54.75
23281;BME280;11809;56.390;-3.266;2023-01-29T03:28:21;101668.63;;;14.37;54.59
23281;BME280;11809;56.390;-3.266;2023-01-29T03:31:11;101667.63;;;14.40;54.78
23281;BME280;11809;56.390;-3.266;2023-01-29T03:34:11;101666.81;;;14.39;54.64
23281;BME280;11809;56.390;-3.266;2023-01-29T03:36:57;101655.34;;;14.39;54.69
23281;BME280;11809;56.390;-3.266;2023-01-29T03:39:26;101651.66;;;14.43;54.80
23281;BME280;11809;56.390;-3.266;2023-01-29T03:42:02;101645.50;;;14.42;54.81
23281;BME280;11809;56.390;-3.266;2023-01-29T03:47:42;101616.34;;;14.44;54.80
23281;BME280;11809;56.390;-3.266;2023-01-29T03:52:45;101631.25;;;14.46;54.68
23281;BME280;11809;56.390;-3.266;2023-01-29T03:55:21;101625.94;;;14.46;54.80
23281;BME280;11809;56.390;-3.266;2023-01-29T03:58:08;101632.97;;;14.47;54.69
23281;BME280;11809;56.390;-3.266;2023-01-29T04:00:44;101627.69;;;14.47;54.46
23281;BME280;11809;56.390;-3.266;2023-01-29T04:03:32;101626.69;;;14.50;54.75
23281;BME280;11809;56.390;-3.266;2023-01-29T04:08:50;101603.81;;;14.49;54.48
23281;BME280;11809;56.390;-3.266;2023-01-29T04:11:21;101608.09;;;14.51;54.69
23281;BME280;11809;56.390;-3.266;2023-01-29T04:13:49;101594.88;;;14.51;54.46
23281;BME280;11809;56.390;-3.266;2023-01-29T04:16:21;101585.16;;;14.52;54.66
23281;BME280;11809;56.390;-3.266;2023-01-29T04:18:49;101581.75;;;14.50;54.75
23281;BME280;11809;56.390;-3.266;2023-01-29T04:21:17;101595.75;;;14.52;54.60
23281;BME280;11809;56.390;-3.266;2023-01-29T04:23:44;101585.09;;;14.53;54.79
23281;BME280;11809;56.390;-3.266;2023-01-29T04:31:38;101587.69;;;14.55;54.72
23281;BME280;11809;56.390;-3.266;2023-01-29T04:39:55;101585.03;;;14.55;54.68
23281;BME280;11809;56.390;-3.266;2023-01-29T04:43:16;101595.56;;;14.56;54.63
23281;BME280;11809;56.390;-3.266;2023-01-29T04:47:59;101589.28;;;14.59;54.67
23281;BME280;11809;56.390;-3.266;2023-01-29T04:50:40;101575.34;;;14.55;54.54
23281;BME280;11809;56.390;-3.266;2023-01-29T04:55:41;101548.72;;;14.58;54.29
23281;BME280;11809;56.390;-3.266;2023-01-29T04:58:29;101545.25;;;14.58;54.13
23281;BME280;11809;56.390;-3.266;2023-01-29T05:00:59;101536.50;;;14.56;54.10
23281;BME280;11809;56.390;-3.266;2023-01-29T05:03:29;101547.16;;;14.54;54.27
23281;BME280;11809;56.390;-3.266;2023-01-29T05:05:59;101544.50;;;14.54;53.85
23281;BME280;11809;56.390;-3.266;2023-01-29T05:08:28;101550.66;;;14.55;54.19
23281;BME280;11809;56.390;-3.266;2023-01-29T05:10:58;101557.66;;;14.56;54.24
23281;BME280;11809;56.390;-3.266;2023-01-29T05:13:27;101555.88;;;14.56;54.26
23281;BME280;11809;56.390;-3.266;2023-01-29T05:16:17;101549.72;;;14.56;54.18
23281;BME280;11809;56.390;-3.266;2023-01-29T05:18:45;101542.72;;;14.55;54.09
23281;BME280;11809;56.390;-3.266;2023-01-29T05:21:12;101547.06;;;14.56;54.29
23281;BME280;11809;56.390;-3.266;2023-01-29T05:23:39;101548.81;;;14.57;54.25
23281;BME280;11809;56.390;-3.266;2023-01-29T05:26:19;101553.22;;;14.56;54.36
23281;BME280;11809;56.390;-3.266;2023-01-29T05:29:05;101545.38;;;14.55;54.05
23281;BME280;11809;56.390;-3.266;2023-01-29T05:31:32;101542.78;;;14.53;54.33
23281;BME280;11809;56.390;-3.266;2023-01-29T05:33:59;101527.63;;;14.57;54.58
23281;BME280;11809;56.390;-3.266;2023-01-29T05:36:26;101499.47;;;14.56;54.59
23281;BME280;11809;56.390;-3.266;2023-01-29T05:38:53;101487.88;;;14.58;54.42
23281;BME280;11809;56.390;-3.266;2023-01-29T05:41:19;101474.75;;;14.57;54.81
23281;BME280;11809;56.390;-3.266;2023-01-29T05:43:46;101483.59;;;14.56;54.84
23281;BME280;11809;56.390;-3.266;2023-01-29T05:46:13;101480.94;;;14.56;54.66
23281;BME280;11809;56.390;-3.266;2023-01-29T05:48:40;101481.03;;;14.54;54.59
23281;BME280;11809;56.390;-3.266;2023-01-29T05:51:07;101480.16;;;14.54;54.67
23281;BME280;11809;56.390;-3.266;2023-01-29T05:53:34;101474.81;;;14.55;54.58
23281;BME280;11809;56.390;-3.266;2023-01-29T05:56:02;101455.44;;;14.55;54.71
23281;BME280;11809;56.390;-3.266;2023-01-29T05:58:30;101455.31;;;14.58;54.52
23281;BME280;11809;56.390;-3.266;2023-01-29T06:00:57;101452.56;;;14.60;54.52
23281;BME280;11809;56.390;-3.266;2023-01-29T06:03:32;101442.09;;;14.58;54.59
23281;BME280;11809;56.390;-3.266;2023-01-29T06:06:00;101439.44;;;14.58;54.48
23281;BME280;11809;56.390;-3.266;2023-01-29T06:08:27;101437.56;;;14.60;54.79
23281;BME280;11809;56.390;-3.266;2023-01-29T06:10:54;101429.63;;;14.60;54.78
23281;BME280;11809;56.390;-3.266;2023-01-29T06:13:21;101424.34;;;14.60;54.88
23281;BME280;11809;56.390;-3.266;2023-01-29T06:15:49;101437.56;;;14.60;54.89
23281;BME280;11809;56.390;-3.266;2023-01-29T06:18:16;101433.97;;;14.61;54.58
23281;BME280;11809;56.390;-3.266;2023-01-29T06:20:43;101431.34;;;14.61;54.62
23281;BME280;11809;56.390;-3.266;2023-01-29T06:23:10;101427.84;;;14.61;54.54
23281;BME280;11809;56.390;-3.266;2023-01-29T06:25:37;101425.13;;;14.62;54.89
23281;BME280;11809;56.390;-3.266;2023-01-29T06:28:03;101428.63;;;14.63;54.99
23281;BME280;11809;56.390;-3.266;2023-01-29T06:30:31;101432.16;;;14.63;54.89
23281;BME280;11809;56.390;-3.266;2023-01-29T06:32:58;101429.56;;;14.62;54.92
23281;BME280;11809;56.390;-3.266;2023-01-29T06:35:27;101424.25;;;14.62;54.75
23281;BME280;11809;56.390;-3.266;2023-01-29T06:37:55;101436.56;;;14.63;54.91
23281;BME280;11809;56.390;-3.266;2023-01-29T06:40:22;101421.56;;;14.63;54.70
23281;BME280;11809;56.390;-3.266;2023-01-29T06:42:49;101402.09;;;14.64;54.48
23281;BME280;11809;56.390;-3.266;2023-01-29T06:45:16;101389.81;;;14.63;54.88
23281;BME280;11809;56.390;-3.266;2023-01-29T06:47:42;101362.56;;;14.61;54.79
23281;BME280;11809;56.390;-3.266;2023-01-29T06:50:10;101358.13;;;14.62;54.71
23281;BME280;11809;56.390;-3.266;2023-01-29T06:52:37;101353.72;;;14.62;54.74
23281;BME280;11809;56.390;-3.266;2023-01-29T06:55:04;101342.22;;;14.63;54.88
23281;BME280;11809;56.390;-3.266;2023-01-29T06:57:31;101331.63;;;14.63;54.84
23281;BME280;11809;56.390;-3.266;2023-01-29T06:59:58;101320.69;;;14.71;54.38
23281;BME280;11809;56.390;-3.266;2023-01-29T07:02:25;101338.84;;;14.78;54.20
23281;BME280;11809;56.390;-3.266;2023-01-29T07:04:52;101333.28;;;14.84;54.17
23281;BME280;11809;56.390;-3.266;2023-01-29T07:07:19;101336.63;;;14.88;54.18
23281;BME280;11809;56.390;-3.266;2023-01-29T07:09:46;101346.06;;;14.93;53.96
23281;BME280;11809;56.390;-3.266;2023-01-29T07:12:12;101336.19;;;14.97;53.86
23281;BME280;11809;56.390;-3.266;2023-01-29T07:14:39;101325.69;;;14.95;54.16
23281;BME280;11809;56.390;-3.266;2023-01-29T07:17:06;101324.06;;;14.93;54.14
23281;BME280;11809;56.390;-3.266;2023-01-29T07:19:33;101331.03;;;14.94;53.93
23281;BME280;11809;56.390;-3.266;2023-01-29T07:22:00;101328.34;;;14.95;54.29
23281;BME280;11809;56.390;-3.266;2023-01-29T07:24:28;101323.81;;;14.97;54.42
23281;BME280;11809;56.390;-3.266;2023-01-29T07:26:55;101332.63;;;14.98;54.29
23281;BME280;11809;56.390;-3.266;2023-01-29T07:29:22;101327.16;;;15.01;54.37
23281;BME280;11809;56.390;-3.266;2023-01-29T07:31:49;101313.88;;;15.02;54.49
23281;BME280;11809;56.390;-3.266;2023-01-29T07:34:17;101308.44;;;15.05;54.66
23281;BME280;11809;56.390;-3.266;2023-01-29T07:36:43;101301.28;;;15.07;54.71
23281;BME280;11809;56.390;-3.266;2023-01-29T07:39:10;101310.84;;;15.10;54.82
23281;BME280;11809;56.390;-3.266;2023-01-29T07:41:37;101298.41;;;15.12;54.88
23281;BME280;11809;56.390;-3.266;2023-01-29T07:44:04;101284.25;;;15.13;54.72
23281;BME280;11809;56.390;-3.266;2023-01-29T07:46:31;101288.53;;;15.15;55.01
23281;BME280;11809;56.390;-3.266;2023-01-29T07:48:58;101274.19;;;15.19;54.72
23281;BME280;11809;56.390;-3.266;2023-01-29T07:51:25;101252.22;;;15.17;54.70
23281;BME280;11809;56.390;-3.266;2023-01-29T07:53:52;101257.38;;;15.21;54.79
23281;BME280;11809;56.390;-3.266;2023-01-29T07:56:19;101259.88;;;15.24;54.74
23281;BME280;11809;56.390;-3.266;2023-01-29T07:58:46;101251.94;;;15.24;54.77
23281;BME280;11809;56.390;-3.266;2023-01-29T08:01:13;101238.56;;;15.27;54.63
23281;BME280;11809;56.390;-3.266;2023-01-29T08:03:40;101236.81;;;15.26;54.84
23281;BME280;11809;56.390;-3.266;2023-01-29T08:06:07;101227.81;;;15.30;54.59
23281;BME280;11809;56.390;-3.266;2023-01-29T08:08:34;101224.22;;;15.31;54.56
23281;BME280;11809;56.390;-3.266;2023-01-29T08:11:02;101233.09;;;15.30;54.51
23281;BME280;11809;56.390;-3.266;2023-01-29T08:13:31;101241.81;;;15.32;54.38
23281;BME280;11809;56.390;-3.266;2023-01-29T08:16:00;101247.13;;;15.32;54.52
23281;BME280;11809;56.390;-3.266;2023-01-29T08:18:27;101262.09;;;15.33;54.43
23281;BME280;11809;56.390;-3.266;2023-01-29T08:21:01;101275.31;;;15.33;54.40
23281;BME280;11809;56.390;-3.266;2023-01-29T08:23:28;101282.47;;;15.31;54.38
23281;BME280;11809;56.390;-3.266;2023-01-29T08:25:55;101279.00;;;15.30;54.48
23281;BME280;11809;56.390;-3.266;2023-01-29T08:28:22;101279.81;;;15.31;54.60
23281;BME280;11809;56.390;-3.266;2023-01-29T08:30:49;101279.81;;;15.31;54.30
23281;BME280;11809;56.390;-3.266;2023-01-29T08:33:16;101260.44;;;15.30;54.40
23281;BME280;11809;56.390;-3.266;2023-01-29T08:35:52;101257.81;;;15.30;54.48
23281;BME280;11809;56.390;-3.266;2023-01-29T08:38:18;101262.22;;;15.30;54.50
23281;BME280;11809;56.390;-3.266;2023-01-29T08:40:46;101256.84;;;15.31;54.66
23281;BME280;11809;56.390;-3.266;2023-01-29T08:43:13;101255.84;;;15.34;54.64
23281;BME280;11809;56.390;-3.266;2023-01-29T08:45:41;101248.59;;;15.37;54.71
23281;BME280;11809;56.390;-3.266;2023-01-29T08:48:10;101243.38;;;15.36;54.75
23281;BME280;11809;56.390;-3.266;2023-01-29T08:50:37;101255.69;;;15.37;54.62
23281;BME280;11809;56.390;-3.266;2023-01-29T08:53:05;101243.22;;;15.39;54.51
23281;BME280;11809;56.390;-3.266;2023-01-29T08:55:40;101214.88;;;15.41;54.47
23281;BME280;11809;56.390;-3.266;2023-01-29T08:58:09;101211.28;;;15.42;54.55
23281;BME280;11809;56.390;-3.266;2023-01-29T09:00:37;101206.69;;;15.45;54.50
23281;BME280;11809;56.390;-3.266;2023-01-29T09:03:04;101195.97;;;15.48;54.64
23281;BME280;11809;56.390;-3.266;2023-01-29T09:05:36;101190.59;;;15.50;54.72
23281;BME280;11809;56.390;-3.266;2023-01-29T09:08:04;101179.06;;;15.51;54.57
23281;BME280;11809;56.390;-3.266;2023-01-29T09:10:31;101173.63;;;15.54;54.71
23281;BME280;11809;56.390;-3.266;2023-01-29T09:12:58;101164.72;;;15.55;54.74
23281;BME280;11809;56.390;-3.266;2023-01-29T09:15:27;101157.53;;;15.57;54.54
23281;BME280;11809;56.390;-3.266;2023-01-29T09:17:54;101156.59;;;15.58;54.59
23281;BME280;11809;56.390;-3.266;2023-01-29T09:20:21;101155.69;;;15.59;54.68
23281;BME280;11809;56.390;-3.266;2023-01-29T09:22:48;101141.56;;;15.58;54.88
23281;BME280;11809;56.390;-3.266;2023-01-29T09:25:17;101125.69;;;15.58;54.97
23281;BME280;11809;56.390;-3.266;2023-01-29T09:27:44;101130.06;;;15.59;54.80
23281;BME280;11809;56.390;-3.266;2023-01-29T09:30:12;101136.19;;;15.60;54.87
23281;BME280;11809;56.390;-3.266;2023-01-29T09:32:39;101128.81;;;15.49;54.46
23281;BME280;11809;56.390;-3.266;2023-01-29T09:35:22;101116.41;;;15.50;54.53
23281;BME280;11809;56.390;-3.266;2023-01-29T09:37:49;101111.06;;;15.51;54.61
23281;BME280;11809;56.390;-3.266;2023-01-29T09:40:29;101095.84;;;15.55;54.66
23281;BME280;11809;56.390;-3.266;2023-01-29T09:43:06;101099.19;;;15.58;54.50
23281;BME280;11809;56.390;-3.266;2023-01-29T09:45:37;101088.66;;;15.57;54.49
23281;BME280;11809;56.390;-3.266;2023-01-29T09:48:10;101079.78;;;15.58;54.76
23281;BME280;11809;56.390;-3.266;2023-01-29T09:50:41;101098.31;;;15.58;55.15
23281;BME280;11809;56.390;-3.266;2023-01-29T09:53:35;101084.91;;;15.61;55.04
23281;BME280;11809;56.390;-3.266;2023-01-29T09:56:13;101106.13;;;15.61;54.76
23281;BME280;11809;56.390;-3.266;2023-01-29T09:58:42;101102.34;;;15.65;55.27
23281;BME280;11809;56.390;-3.266;2023-01-29T10:01:32;101079.19;;;15.68;55.35
23281;BME280;11809;56.390;-3.266;2023-01-29T10:07:02;101057.75;;;15.73;55.50
23281;BME280;11809;56.390;-3.266;2023-01-29T10:20:46;100998.84;;;15.84;55.34
23281;BME280;11809;56.390;-3.266;2023-01-29T10:23:26;100998.50;;;15.90;55.17
23281;BME280;11809;56.390;-3.266;2023-01-29T10:25:54;101002.78;;;15.92;54.99
23281;BME280;11809;56.390;-3.266;2023-01-29T10:28:36;101006.13;;;15.96;54.95
23281;BME280;11809;56.390;-3.266;2023-01-29T10:31:12;100999.78;;;15.98;55.05
23281;BME280;11809;56.390;-3.266;2023-01-29T10:33:45;100991.66;;;16.01;54.98
23281;BME280;11809;56.390;-3.266;2023-01-29T10:36:35;100998.50;;;16.05;54.88
23281;BME280;11809;56.390;-3.266;2023-01-29T10:39:04;100996.53;;;16.09;54.81
23281;BME280;11809;56.390;-3.266;2023-01-29T10:59:26;100965.75;;;16.36;54.36
23281;BME280;11809;56.390;-3.266;2023-01-29T11:01:59;100973.34;;;16.42;54.12
23281;BME280;11809;56.390;-3.266;2023-01-29T11:04:30;100959.91;;;16.45;53.92
23281;BME280;11809;56.390;-3.266;2023-01-29T11:07:07;100961.34;;;16.51;53.94
23281;BME280;11809;56.390;-3.266;2023-01-29T11:09:41;100958.47;;;16.55;53.81
23281;BME280;11809;56.390;-3.266;2023-01-29T11:12:14;100965.28;;;16.59;53.85
23281;BME280;11809;56.390;-3.266;2023-01-29T11:14:49;100961.41;;;16.65;53.62
23281;BME280;11809;56.390;-3.266;2023-01-29T11:17:23;100937.16;;;16.71;53.57
23281;BME280;11809;56.390;-3.266;2023-01-29T11:19:53;100933.34;;;16.75;53.69
23281;BME280;11809;56.390;-3.266;2023-01-29T11:22:25;100917.25;;;16.78;53.30
23281;BME280;11809;56.390;-3.266;2023-01-29T11:25:16;100920.66;;;16.80;53.32
23281;BME280;11809;56.390;-3.266;2023-01-29T11:27:46;100915.16;;;16.83;53.45
23281;BME280;11809;56.390;-3.266;2023-01-29T11:30:37;100915.84;;;16.86;53.37
23281;BME280;11809;56.390;-3.266;2023-01-29T11:33:23;100905.97;;;16.88;53.33
23281;BME280;11809;56.390;-3.266;2023-01-29T11:35:50;100903.41;;;16.87;53.67
23281;BME280;11809;56.390;-3.266;2023-01-29T11:38:24;100907.31;;;16.81;53.18
23281;BME280;11809;56.390;-3.266;2023-01-29T11:40:53;100900.16;;;16.82;53.32
23281;BME280;11809;56.390;-3.266;2023-01-29T11:43:31;100912.50;;;16.83;53.37
23281;BME280;11809;56.390;-3.266;2023-01-29T11:46:03;100913.38;;;16.83;53.21
23281;BME280;11809;56.390;-3.266;2023-01-29T11:51:11;100883.50;;;16.80;52.91
23281;BME280;11809;56.390;-3.266;2023-01-29T11:53:51;100873.84;;;16.79;53.02
23281;BME280;11809;56.390;-3.266;2023-01-29T11:58:53;100866.63;;;16.81;52.82
23281;BME280;11809;56.390;-3.266;2023-01-29T12:01:35;100864.72;;;16.83;52.88
23281;BME280;11809;56.390;-3.266;2023-01-29T12:04:17;100863.00;;;16.82;52.72
23281;BME280;11809;56.390;-3.266;2023-01-29T12:06:46;100844.34;;;16.83;52.63
23281;BME280;11809;56.390;-3.266;2023-01-29T12:09:23;100847.69;;;16.87;52.71
23281;BME280;11809;56.390;-3.266;2023-01-29T12:11:53;100834.28;;;16.88;52.56
23281;BME280;11809;56.390;-3.266;2023-01-29T12:14:31;100831.34;;;16.93;52.51
23281;BME280;11809;56.390;-3.266;2023-01-29T12:17:05;100816.94;;;16.97;52.38
23281;BME280;11809;56.390;-3.266;2023-01-29T12:19:41;100813.97;;;17.02;52.23
23281;BME280;11809;56.390;-3.266;2023-01-29T12:22:19;100791.38;;;17.09;52.30
23281;BME280;11809;56.390;-3.266;2023-01-29T12:24:49;100781.41;;;17.12;52.42
23281;BME280;11809;56.390;-3.266;2023-01-29T12:27:24;100767.19;;;17.13;52.29
23281;BME280;11809;56.390;-3.266;2023-01-29T12:33:20;100752.56;;;17.20;52.60
23281;BME280;11809;56.390;-3.266;2023-01-29T12:35:55;100714.44;;;17.21;52.67
23281;BME280;11809;56.390;-3.266;2023-01-29T12:38:26;100737.38;;;17.22;52.29
23281;BME280;11809;56.390;-3.266;2023-01-29T12:41:00;100733.78;;;17.23;52.32
23281;BME280;11809;56.390;-3.266;2023-01-29T12:43:52;100710.59;;;17.25;52.22
23281;BME280;11809;56.390;-3.266;2023-01-29T12:46:25;100732.50;;;17.29;52.44
23281;BME280;11809;56.390;-3.266;2023-01-29T12:48:55;100718.91;;;17.33;52.58
23281;BME280;11809;56.390;-3.266;2023-01-29T12:51:36;100715.31;;;17.34;52.24
23281;BME280;11809;56.390;-3.266;2023-01-29T12:54:08;100699.38;;;17.34;52.24
23281;BME280;11809;56.390;-3.266;2023-01-29T12:56:43;100711.47;;;17.38;52.35
23281;BME280;11809;56.390;-3.266;2023-01-29T12:59:43;100700.78;;;17.40;52.65
23281;BME280;11809;56.390;-3.266;2023-01-29T13:08:51;100650.91;;;17.43;52.22
23281;BME280;11809;56.390;-3.266;2023-01-29T13:11:28;100637.44;;;17.46;51.85
23281;BME280;11809;56.390;-3.266;2023-01-29T13:14:05;100634.78;;;17.46;51.98
23281;BME280;11809;56.390;-3.266;2023-01-29T13:16:41;100631.16;;;17.47;51.88
23281;BME280;11809;56.390;-3.266;2023-01-29T13:19:26;100633.72;;;17.49;51.73
23281;BME280;11809;56.390;-3.266;2023-01-29T13:21:58;100627.44;;;17.50;51.71
23281;BME280;11809;56.390;-3.266;2023-01-29T13:24:32;100611.50;;;17.50;51.72
23281;BME280;11809;56.390;-3.266;2023-01-29T13:27:01;100587.59;;;17.50;51.60
23281;BME280;11809;56.390;-3.266;2023-01-29T13:29:29;100600.03;;;17.49;51.81
23281;BME280;11809;56.390;-3.266;2023-01-29T13:31:58;100587.69;;;17.48;51.58
23281;BME280;11809;56.390;-3.266;2023-01-29T13:34:35;100588.44;;;17.50;51.52
23281;BME280;11809;56.390;-3.266;2023-01-29T13:37:10;100589.31;;;17.51;51.63
23281;BME280;11809;56.390;-3.266;2023-01-29T13:39:51;100578.78;;;17.49;51.58
23281;BME280;11809;56.390;-3.266;2023-01-29T13:42:23;100567.19;;;17.50;51.41
23281;BME280;11809;56.390;-3.266;2023-01-29T13:44:53;100547.75;;;17.50;51.52
23281;BME280;11809;56.390;-3.266;2023-01-29T13:47:25;100517.78;;;17.48;51.27
23281;BME280;11809;56.390;-3.266;2023-01-29T13:52:51;100512.69;;;17.45;51.32
23281;BME280;11809;56.390;-3.266;2023-01-29T13:55:30;100492.50;;;17.42;51.29
23281;BME280;11809;56.390;-3.266;2023-01-29T13:58:04;100500.66;;;17.39;51.39
23281;BME280;11809;56.390;-3.266;2023-01-29T14:07:56;100475.19;;;17.24;51.38
23281;BME280;11809;56.390;-3.266;2023-01-29T14:10:27;100471.78;;;17.22;51.59
23281;BME280;11809;56.390;-3.266;2023-01-29T14:15:38;100480.94;;;17.18;51.45
23281;BME280;11809;56.390;-3.266;2023-01-29T14:18:19;100465.00;;;17.18;51.59
23281;BME280;11809;56.390;-3.266;2023-01-29T14:23:38;100474.56;;;17.21;51.65
23281;BME280;11809;56.390;-3.266;2023-01-29T14:26:22;100467.66;;;17.18;51.76
23281;BME280;11809;56.390;-3.266;2023-01-29T14:29:06;100455.09;;;17.20;51.54
23281;BME280;11809;56.390;-3.266;2023-01-29T14:37:31;100447.56;;;17.14;51.56
23281;BME280;11809;56.390;-3.266;2023-01-29T14:45:29;100431.22;;;17.08;51.81
23281;BME280;11809;56.390;-3.266;2023-01-29T14:48:34;100429.44;;;17.08;51.81
23281;BME280;11809;56.390;-3.266;2023-01-29T14:51:08;100410.94;;;17.07;51.92
23281;BME280;11809;56.390;-3.266;2023-01-29T14:53:44;100405.53;;;17.08;51.85
23281;BME280;11809;56.390;-3.266;2023-01-29T14:56:25;100394.28;;;17.05;51.91
23281;BME280;11809;56.390;-3.266;2023-01-29T14:59:01;100384.50;;;17.05;51.82
23281;BME280;11809;56.390;-3.266;2023-01-29T15:01:35;100377.50;;;17.04;51.83
23281;BME280;11809;56.390;-3.266;2023-01-29T15:04:37;100379.41;;;17.02;51.77
23281;BME280;11809;56.390;-3.266;2023-01-29T15:13:00;100380.88;;;17.06;51.82
23281;BME280;11809;56.390;-3.266;2023-01-29T15:15:40;100375.56;;;17.06;51.80
23281;BME280;11809;56.390;-3.266;2023-01-29T15:21:03;100393.19;;;17.07;51.90
23281;BME280;11809;56.390;-3.266;2023-01-29T15:23:33;100400.22;;;17.08;51.94
23281;BME280;11809;56.390;-3.266;2023-01-29T15:26:03;100392.25;;;17.08;51.94